Terminal Aerodrome Forecast
Issued by NWS

Home | Current Version | Previous Version | Text Only | Print | Product List | Glossary On
Versions: 1 2 3 4 5 6 7 8 9 10 11 12 13 14 15
000
FTUS45 KABQ 020537
TAFFMN
TAF
KFMN 020537Z 0206/0306 26009KT P6SM VCSH SCT120 SCT200
     FM020700 08008KT P6SM BKN120
     FM021900 VRB06KT P6SM FEW090
     FM030000 31011KT P6SM VCTS BKN090CB
     FM030200 VRB06KT P6SM VCSH BKN090=

USA.gov is the U.S. government's official web portal to all federal, state and local government web resources and services.